sensor_id;sensor_type;location;lat;lon;timestamp;pressure;altitude;pressure_sealevel;temperature;humidity
65716;BME280;63484;52.054;8.518;2023-02-02T00:01:08;100805.78;;;5.00;90.07
65716;BME280;63484;52.054;8.518;2023-02-02T00:06:10;100811.31;;;4.91;90.74
65716;BME280;63484;52.054;8.518;2023-02-02T00:11:11;100807.31;;;5.06;90.16
65716;BME280;63484;52.054;8.518;2023-02-02T00:16:33;100821.00;;;5.11;89.10
65716;BME280;63484;52.054;8.518;2023-02-02T00:21:35;100820.38;;;5.04;89.49
65716;BME280;63484;52.054;8.518;2023-02-02T00:26:39;100818.81;;;5.00;89.38
65716;BME280;63484;52.054;8.518;2023-02-02T00:31:42;100815.50;;;4.95;89.70
65716;BME280;63484;52.054;8.518;2023-02-02T00:36:44;100820.63;;;4.98;89.39
65716;BME280;63484;52.054;8.518;2023-02-02T00:41:46;100822.81;;;4.86;89.80
65716;BME280;63484;52.054;8.518;2023-02-02T00:46:49;100824.97;;;4.98;89.31
65716;BME280;63484;52.054;8.518;2023-02-02T00:51:50;100822.06;;;4.82;89.12
65716;BME280;63484;52.054;8.518;2023-02-02T00:56:52;100832.69;;;4.76;89.77
65716;BME280;63484;52.054;8.518;2023-02-02T01:01:55;100839.44;;;4.82;89.08
65716;BME280;63484;52.054;8.518;2023-02-02T01:06:56;100837.56;;;4.85;89.13
65716;BME280;63484;52.054;8.518;2023-02-02T01:11:58;100846.59;;;4.75;89.15
65716;BME280;63484;52.054;8.518;2023-02-02T01:17:00;100845.94;;;4.69;90.09
65716;BME280;63484;52.054;8.518;2023-02-02T01:22:02;100839.81;;;4.71;90.23
65716;BME280;63484;52.054;8.518;2023-02-02T01:27:03;100841.56;;;4.71;90.44
65716;BME280;63484;52.054;8.518;2023-02-02T01:32:06;100847.72;;;4.68;90.80
65716;BME280;63484;52.054;8.518;2023-02-02T01:37:08;100856.53;;;4.64;91.01
65716;BME280;63484;52.054;8.518;2023-02-02T01:42:12;100855.13;;;4.54;92.01
65716;BME280;63484;52.054;8.518;2023-02-02T01:47:15;100855.38;;;4.47;92.38
65716;BME280;63484;52.054;8.518;2023-02-02T01:52:21;100853.00;;;4.41;92.25
65716;BME280;63484;52.054;8.518;2023-02-02T01:57:28;100868.63;;;4.41;92.80
65716;BME280;63484;52.054;8.518;2023-02-02T02:02:32;100875.00;;;4.31;93.00
65716;BME280;63484;52.054;8.518;2023-02-02T02:07:34;100867.31;;;4.28;93.74
65716;BME280;63484;52.054;8.518;2023-02-02T02:12:36;100878.94;;;4.16;93.72
65716;BME280;63484;52.054;8.518;2023-02-02T02:17:49;100880.47;;;4.21;94.36
65716;BME280;63484;52.054;8.518;2023-02-02T02:23:11;100880.22;;;4.31;94.04
65716;BME280;63484;52.054;8.518;2023-02-02T02:29:16;100881.84;;;4.33;94.05
65716;BME280;63484;52.054;8.518;2023-02-02T02:34:29;100889.38;;;4.42;94.28
65716;BME280;63484;52.054;8.518;2023-02-02T02:39:36;100893.56;;;4.46;94.05
65716;BME280;63484;52.054;8.518;2023-02-02T02:44:40;100887.81;;;4.63;92.98
65716;BME280;63484;52.054;8.518;2023-02-02T02:49:45;100892.00;;;4.68;93.07
65716;BME280;63484;52.054;8.518;2023-02-02T02:54:49;100897.63;;;4.81;92.52
65716;BME280;63484;52.054;8.518;2023-02-02T02:59:57;100894.75;;;4.88;92.55
65716;BME280;63484;52.054;8.518;2023-02-02T03:05:22;100902.34;;;4.96;91.99
65716;BME280;63484;52.054;8.518;2023-02-02T03:10:28;100902.47;;;4.91;92.08
65716;BME280;63484;52.054;8.518;2023-02-02T03:15:30;100898.34;;;4.86;92.23
65716;BME280;63484;52.054;8.518;2023-02-02T03:20:33;100901.81;;;4.85;92.36
65716;BME280;63484;52.054;8.518;2023-02-02T03:25:35;100901.16;;;4.78;93.01
65716;BME280;63484;52.054;8.518;2023-02-02T03:30:39;100901.44;;;4.71;93.27
65716;BME280;63484;52.054;8.518;2023-02-02T03:35:43;100902.34;;;4.70;93.86
65716;BME280;63484;52.054;8.518;2023-02-02T03:40:44;100916.03;;;4.76;94.18
65716;BME280;63484;52.054;8.518;2023-02-02T03:45:45;100918.53;;;4.79;94.56
65716;BME280;63484;52.054;8.518;2023-02-02T03:50:48;100920.16;;;4.82;94.52
65716;BME280;63484;52.054;8.518;2023-02-02T03:55:50;100921.41;;;4.96;94.17
65716;BME280;63484;52.054;8.518;2023-02-02T04:00:51;100927.34;;;5.00;94.05
65716;BME280;63484;52.054;8.518;2023-02-02T04:05:56;100929.72;;;5.07;93.93
65716;BME280;63484;52.054;8.518;2023-02-02T04:10:57;100929.63;;;5.10;93.71
65716;BME280;63484;52.054;8.518;2023-02-02T04:15:59;100932.97;;;5.14;93.64
65716;BME280;63484;52.054;8.518;2023-02-02T04:21:03;100926.03;;;5.13;93.81
65716;BME280;63484;52.054;8.518;2023-02-02T04:26:05;100946.78;;;5.16;93.59
65716;BME280;63484;52.054;8.518;2023-02-02T04:31:07;100938.91;;;5.17;94.39
65716;BME280;63484;52.054;8.518;2023-02-02T04:36:10;100948.44;;;5.18;94.71
65716;BME280;63484;52.054;8.518;2023-02-02T04:41:11;100936.19;;;5.20;94.75
65716;BME280;63484;52.054;8.518;2023-02-02T04:46:14;100940.34;;;5.26;94.74
65716;BME280;63484;52.054;8.518;2023-02-02T04:51:16;100942.84;;;5.29;94.38
65716;BME280;63484;52.054;8.518;2023-02-02T04:56:18;100942.50;;;5.39;94.12
65716;BME280;63484;52.054;8.518;2023-02-02T05:01:20;100945.88;;;5.41;92.75
65716;BME280;63484;52.054;8.518;2023-02-02T05:06:23;100950.38;;;5.61;89.56
65716;BME280;63484;52.054;8.518;2023-02-02T05:11:24;100950.25;;;5.65;88.91
65716;BME280;63484;52.054;8.518;2023-02-02T05:16:26;100951.34;;;5.83;88.20
65716;BME280;63484;52.054;8.518;2023-02-02T05:21:29;100946.38;;;5.76;88.92
65716;BME280;63484;52.054;8.518;2023-02-02T05:26:30;100947.47;;;5.70;88.42
65716;BME280;63484;52.054;8.518;2023-02-02T05:31:32;100950.94;;;5.71;87.01
65716;BME280;63484;52.054;8.518;2023-02-02T05:36:34;100953.53;;;5.71;86.90
65716;BME280;63484;52.054;8.518;2023-02-02T05:41:36;100958.19;;;5.61;87.03
65716;BME280;63484;52.054;8.518;2023-02-02T05:46:38;100958.84;;;5.67;85.88
65716;BME280;63484;52.054;8.518;2023-02-02T05:51:45;100972.03;;;5.63;86.54
65716;BME280;63484;52.054;8.518;2023-02-02T05:56:47;100972.97;;;5.62;86.83
65716;BME280;63484;52.054;8.518;2023-02-02T06:01:50;100988.66;;;5.60;87.74
65716;BME280;63484;52.054;8.518;2023-02-02T06:06:52;100986.25;;;5.54;87.86
65716;BME280;63484;52.054;8.518;2023-02-02T06:11:54;100989.09;;;5.48;88.83
65716;BME280;63484;52.054;8.518;2023-02-02T06:16:55;101001.41;;;5.43;88.21
65716;BME280;63484;52.054;8.518;2023-02-02T06:21:58;100999.34;;;5.28;88.64
65716;BME280;63484;52.054;8.518;2023-02-02T06:27:00;100999.69;;;5.18;89.65
65716;BME280;63484;52.054;8.518;2023-02-02T06:32:01;101014.59;;;5.14;90.24
65716;BME280;63484;52.054;8.518;2023-02-02T06:37:04;101016.69;;;5.03;90.12
65716;BME280;63484;52.054;8.518;2023-02-02T06:42:05;101028.16;;;4.98;90.66
65716;BME280;63484;52.054;8.518;2023-02-02T06:47:07;101032.59;;;4.96;91.34
65716;BME280;63484;52.054;8.518;2023-02-02T06:52:10;101037.91;;;4.93;91.65
65716;BME280;63484;52.054;8.518;2023-02-02T06:57:11;101040.63;;;4.88;92.07
65716;BME280;63484;52.054;8.518;2023-02-02T07:02:12;101036.47;;;4.83;91.51
65716;BME280;63484;52.054;8.518;2023-02-02T07:07:15;101045.47;;;4.73;92.62
65716;BME280;63484;52.054;8.518;2023-02-02T07:12:17;101051.59;;;4.72;93.40
65716;BME280;63484;52.054;8.518;2023-02-02T07:17:18;101050.81;;;4.68;94.13
65716;BME280;63484;52.054;8.518;2023-02-02T07:22:21;101064.72;;;4.67;93.92
65716;BME280;63484;52.054;8.518;2023-02-02T07:27:23;101056.19;;;4.62;95.18
65716;BME280;63484;52.054;8.518;2023-02-02T07:32:24;101053.53;;;4.65;94.68
65716;BME280;63484;52.054;8.518;2023-02-02T07:37:27;101065.81;;;4.60;95.51
65716;BME280;63484;52.054;8.518;2023-02-02T07:42:28;101068.22;;;4.66;94.23
65716;BME280;63484;52.054;8.518;2023-02-02T07:47:30;101068.38;;;4.62;95.29
65716;BME280;63484;52.054;8.518;2023-02-02T07:52:33;101079.56;;;4.64;95.65
65716;BME280;63484;52.054;8.518;2023-02-02T07:57:34;101084.81;;;4.62;96.37
65716;BME280;63484;52.054;8.518;2023-02-02T08:02:36;101083.84;;;4.66;96.59
65716;BME280;63484;52.054;8.518;2023-02-02T08:07:38;101089.81;;;4.70;96.68
65716;BME280;63484;52.054;8.518;2023-02-02T08:12:40;101097.50;;;4.74;96.63
65716;BME280;63484;52.054;8.518;2023-02-02T08:17:44;101104.50;;;4.72;96.27
65716;BME280;63484;52.054;8.518;2023-02-02T08:22:50;101099.19;;;4.75;96.48
65716;BME280;63484;52.054;8.518;2023-02-02T08:27:52;101102.59;;;4.77;96.54
65716;BME280;63484;52.054;8.518;2023-02-02T08:32:53;101109.44;;;4.81;96.32
65716;BME280;63484;52.054;8.518;2023-02-02T08:37:56;101110.28;;;4.82;95.71
65716;BME280;63484;52.054;8.518;2023-02-02T08:42:58;101120.59;;;4.86;96.55
65716;BME280;63484;52.054;8.518;2023-02-02T08:47:59;101121.19;;;4.94;96.79
65716;BME280;63484;52.054;8.518;2023-02-02T08:53:02;101131.44;;;5.00;94.82
65716;BME280;63484;52.054;8.518;2023-02-02T08:58:04;101136.53;;;5.03;95.29
65716;BME280;63484;52.054;8.518;2023-02-02T09:03:05;101143.38;;;5.07;95.05
65716;BME280;63484;52.054;8.518;2023-02-02T09:08:08;101145.84;;;5.12;95.16
65716;BME280;63484;52.054;8.518;2023-02-02T09:13:10;101159.56;;;5.17;95.13
65716;BME280;63484;52.054;8.518;2023-02-02T09:18:11;101163.56;;;5.28;94.48
65716;BME280;63484;52.054;8.518;2023-02-02T09:23:14;101168.78;;;5.28;93.70
65716;BME280;63484;52.054;8.518;2023-02-02T09:28:15;101170.47;;;5.29;93.78
65716;BME280;63484;52.054;8.518;2023-02-02T09:33:17;101178.75;;;5.42;93.27
65716;BME280;63484;52.054;8.518;2023-02-02T09:38:20;101184.84;;;5.42;93.79
65716;BME280;63484;52.054;8.518;2023-02-02T09:43:34;101187.44;;;5.42;93.88
65716;BME280;63484;52.054;8.518;2023-02-02T09:48:45;101196.63;;;5.54;93.43
65716;BME280;63484;52.054;8.518;2023-02-02T09:53:54;101206.16;;;5.55;93.70
65716;BME280;63484;52.054;8.518;2023-02-02T09:58:59;101214.03;;;5.53;93.88
65716;BME280;63484;52.054;8.518;2023-02-02T10:04:04;101229.63;;;5.55;94.05
65716;BME280;63484;52.054;8.518;2023-02-02T10:09:19;101232.13;;;5.58;93.83
65716;BME280;63484;52.054;8.518;2023-02-02T10:14:26;101237.13;;;5.65;92.72
65716;BME280;63484;52.054;8.518;2023-02-02T10:19:29;101236.00;;;5.72;92.68
65716;BME280;63484;52.054;8.518;2023-02-02T10:24:32;101231.44;;;5.79;92.47
65716;BME280;63484;52.054;8.518;2023-02-02T10:29:41;101233.28;;;5.76;91.22
65716;BME280;63484;52.054;8.518;2023-02-02T10:34:56;101243.72;;;5.76;92.00
65716;BME280;63484;52.054;8.518;2023-02-02T10:40:18;101254.81;;;5.84;92.01
65716;BME280;63484;52.054;8.518;2023-02-02T10:45:23;101252.78;;;5.93;91.53
65716;BME280;63484;52.054;8.518;2023-02-02T10:50:25;101255.41;;;5.93;92.47
65716;BME280;63484;52.054;8.518;2023-02-02T10:55:32;101258.56;;;6.03;91.76
65716;BME280;63484;52.054;8.518;2023-02-02T11:00:40;101261.00;;;6.07;91.54
65716;BME280;63484;52.054;8.518;2023-02-02T11:05:46;101262.41;;;6.17;91.33
65716;BME280;63484;52.054;8.518;2023-02-02T11:11:11;101260.81;;;6.13;91.42
65716;BME280;63484;52.054;8.518;2023-02-02T11:16:19;101270.09;;;6.22;91.51
65716;BME280;63484;52.054;8.518;2023-02-02T11:21:23;101277.41;;;6.37;90.89
65716;BME280;63484;52.054;8.518;2023-02-02T11:26:40;101272.53;;;6.52;90.17
65716;BME280;63484;52.054;8.518;2023-02-02T11:31:43;101269.91;;;6.52;90.30
65716;BME280;63484;52.054;8.518;2023-02-02T11:36:58;101268.34;;;6.47;90.67
65716;BME280;63484;52.054;8.518;2023-02-02T11:42:04;101273.03;;;6.37;90.99
65716;BME280;63484;52.054;8.518;2023-02-02T11:47:06;101277.16;;;6.44;90.82
65716;BME280;63484;52.054;8.518;2023-02-02T11:52:15;101284.00;;;6.48;89.56
65716;BME280;63484;52.054;8.518;2023-02-02T11:57:20;101275.03;;;6.55;89.55
65716;BME280;63484;52.054;8.518;2023-02-02T12:02:27;101284.94;;;6.70;89.63
65716;BME280;63484;52.054;8.518;2023-02-02T12:07:31;101277.81;;;6.75;89.62
65716;BME280;63484;52.054;8.518;2023-02-02T12:12:41;101276.06;;;6.76;88.28
65716;BME280;63484;52.054;8.518;2023-02-02T12:17:45;101286.41;;;6.79;89.05
65716;BME280;63484;52.054;8.518;2023-02-02T12:22:57;101286.44;;;6.77;89.37
65716;BME280;63484;52.054;8.518;2023-02-02T12:28:16;101285.25;;;6.86;88.50
65716;BME280;63484;52.054;8.518;2023-02-02T12:33:29;101276.63;;;6.84;89.33
65716;BME280;63484;52.054;8.518;2023-02-02T12:38:48;101281.28;;;6.76;89.08
65716;BME280;63484;52.054;8.518;2023-02-02T12:44:00;101288.31;;;6.74;88.89
65716;BME280;63484;52.054;8.518;2023-02-02T12:49:33;101296.78;;;6.56;89.93
65716;BME280;63484;52.054;8.518;2023-02-02T12:54:50;101288.91;;;6.31;91.51
65716;BME280;63484;52.054;8.518;2023-02-02T13:00:11;101290.66;;;6.31;92.62
65716;BME280;63484;52.054;8.518;2023-02-02T13:05:38;101289.06;;;6.27;92.25
65716;BME280;63484;52.054;8.518;2023-02-02T13:10:46;101296.19;;;6.22;93.42
65716;BME280;63484;52.054;8.518;2023-02-02T13:15:56;101291.63;;;6.28;94.08
65716;BME280;63484;52.054;8.518;2023-02-02T13:21:01;101292.88;;;6.17;95.33
65716;BME280;63484;52.054;8.518;2023-02-02T13:26:05;101300.50;;;6.23;95.25
65716;BME280;63484;52.054;8.518;2023-02-02T13:31:15;101299.47;;;6.28;95.15
65716;BME280;63484;52.054;8.518;2023-02-02T13:36:21;101301.31;;;6.25;94.73
65716;BME280;63484;52.054;8.518;2023-02-02T13:41:25;101312.66;;;6.24;95.17
65716;BME280;63484;52.054;8.518;2023-02-02T13:46:33;101313.75;;;6.17;95.43
65716;BME280;63484;52.054;8.518;2023-02-02T13:51:43;101306.94;;;6.13;95.92
65716;BME280;63484;52.054;8.518;2023-02-02T13:56:55;101313.75;;;6.17;95.45
65716;BME280;63484;52.054;8.518;2023-02-02T14:02:01;101313.06;;;6.12;95.60
65716;BME280;63484;52.054;8.518;2023-02-02T14:07:06;101320.69;;;6.18;95.47
65716;BME280;63484;52.054;8.518;2023-02-02T14:12:10;101322.63;;;6.13;94.80
65716;BME280;63484;52.054;8.518;2023-02-02T14:22:59;101333.13;;;6.10;95.37
65716;BME280;63484;52.054;8.518;2023-02-02T14:28:02;101329.63;;;6.11;96.15
65716;BME280;63484;52.054;8.518;2023-02-02T14:39:09;101336.94;;;6.00;95.84
65716;BME280;63484;52.054;8.518;2023-02-02T14:44:17;101343.88;;;6.01;96.38
65716;BME280;63484;52.054;8.518;2023-02-02T14:49:25;101345.84;;;5.93;96.48
65716;BME280;63484;52.054;8.518;2023-02-02T14:54:37;101357.09;;;5.95;96.69
65716;BME280;63484;52.054;8.518;2023-02-02T14:59:44;101360.44;;;5.98;96.70
65716;BME280;63484;52.054;8.518;2023-02-02T15:04:47;101358.34;;;5.82;97.30
65716;BME280;63484;52.054;8.518;2023-02-02T15:09:50;101362.84;;;5.77;97.39
65716;BME280;63484;52.054;8.518;2023-02-02T15:15:02;101363.81;;;5.72;98.89
65716;BME280;63484;52.054;8.518;2023-02-02T15:20:12;101373.28;;;5.77;98.48
65716;BME280;63484;52.054;8.518;2023-02-02T15:25:23;101389.84;;;5.74;98.44
65716;BME280;63484;52.054;8.518;2023-02-02T15:30:27;101388.22;;;5.72;98.54
65716;BME280;63484;52.054;8.518;2023-02-02T15:35:32;101387.25;;;5.74;98.74
65716;BME280;63484;52.054;8.518;2023-02-02T15:40:36;101387.19;;;5.76;98.68
65716;BME280;63484;52.054;8.518;2023-02-02T15:45:41;101396.84;;;5.74;98.64
65716;BME280;63484;52.054;8.518;2023-02-02T15:50:46;101392.47;;;5.74;98.91
65716;BME280;63484;52.054;8.518;2023-02-02T15:55:52;101396.09;;;5.70;98.45
65716;BME280;63484;52.054;8.518;2023-02-02T16:00:56;101406.72;;;5.62;98.87
65716;BME280;63484;52.054;8.518;2023-02-02T16:05:58;101395.41;;;5.63;98.89
65716;BME280;63484;52.054;8.518;2023-02-02T16:11:03;101386.84;;;5.58;99.49
65716;BME280;63484;52.054;8.518;2023-02-02T16:16:20;101402.59;;;5.55;99.71
65716;BME280;63484;52.054;8.518;2023-02-02T16:21:23;101400.88;;;5.54;99.26
65716;BME280;63484;52.054;8.518;2023-02-02T16:26:29;101402.69;;;5.52;98.96
65716;BME280;63484;52.054;8.518;2023-02-02T16:31:34;101397.56;;;5.48;99.39
65716;BME280;63484;52.054;8.518;2023-02-02T16:36:39;101402.78;;;5.48;99.01
65716;BME280;63484;52.054;8.518;2023-02-02T16:41:41;101407.16;;;5.47;98.58
65716;BME280;63484;52.054;8.518;2023-02-02T16:46:47;101399.41;;;5.46;99.17
65716;BME280;63484;52.054;8.518;2023-02-02T16:52:08;101409.00;;;5.44;99.83
65716;BME280;63484;52.054;8.518;2023-02-02T16:57:17;101406.34;;;5.45;99.76
65716;BME280;63484;52.054;8.518;2023-02-02T17:02:24;101408.13;;;5.43;100.00
65716;BME280;63484;52.054;8.518;2023-02-02T17:07:28;101415.09;;;5.44;100.00
65716;BME280;63484;52.054;8.518;2023-02-02T17:12:33;101411.59;;;5.44;100.00
65716;BME280;63484;52.054;8.518;2023-02-02T17:17:34;101412.47;;;5.44;100.00
65716;BME280;63484;52.054;8.518;2023-02-02T17:22:38;101405.53;;;5.43;100.00
65716;BME280;63484;52.054;8.518;2023-02-02T17:27:42;101410.78;;;5.42;100.00
65716;BME280;63484;52.054;8.518;2023-02-02T17:32:44;101416.03;;;5.40;100.00
65716;BME280;63484;52.054;8.518;2023-02-02T17:37:46;101420.41;;;5.40;100.00
65716;BME280;63484;52.054;8.518;2023-02-02T17:42:51;101409.94;;;5.41;100.00
65716;BME280;63484;52.054;8.518;2023-02-02T17:47:53;101411.66;;;5.42;100.00
65716;BME280;63484;52.054;8.518;2023-02-02T17:52:58;101405.56;;;5.42;100.00
65716;BME280;63484;52.054;8.518;2023-02-02T17:58:01;101413.25;;;5.46;100.00
65716;BME280;63484;52.054;8.518;2023-02-02T18:03:09;101420.03;;;5.53;100.00
65716;BME280;63484;52.054;8.518;2023-02-02T18:08:14;101411.16;;;5.60;100.00
65716;BME280;63484;52.054;8.518;2023-02-02T18:13:19;101404.78;;;5.71;100.00
65716;BME280;63484;52.054;8.518;2023-02-02T18:18:22;101407.28;;;5.74;100.00
65716;BME280;63484;52.054;8.518;2023-02-02T18:23:24;101402.53;;;5.88;100.00
65716;BME280;63484;52.054;8.518;2023-02-02T18:28:26;101398.25;;;5.87;100.00
65716;BME280;63484;52.054;8.518;2023-02-02T18:33:28;101388.59;;;5.89;100.00
65716;BME280;63484;52.054;8.518;2023-02-02T18:38:29;101382.38;;;5.93;100.00
65716;BME280;63484;52.054;8.518;2023-02-02T18:43:32;101386.75;;;5.92;100.00
65716;BME280;63484;52.054;8.518;2023-02-02T18:48:34;101378.19;;;5.87;100.00
65716;BME280;63484;52.054;8.518;2023-02-02T18:53:36;101378.09;;;5.92;100.00
65716;BME280;63484;52.054;8.518;2023-02-02T18:58:39;101378.78;;;5.97;100.00
65716;BME280;63484;52.054;8.518;2023-02-02T19:03:42;101374.31;;;6.00;100.00
65716;BME280;63484;52.054;8.518;2023-02-02T19:08:47;101376.38;;;6.18;100.00
65716;BME280;63484;52.054;8.518;2023-02-02T19:13:50;101379.31;;;6.35;100.00
65716;BME280;63484;52.054;8.518;2023-02-02T19:18:54;101382.38;;;6.48;100.00
65716;BME280;63484;52.054;8.518;2023-02-02T19:23:58;101372.75;;;6.50;100.00
65716;BME280;63484;52.054;8.518;2023-02-02T19:29:06;101368.00;;;6.61;100.00
65716;BME280;63484;52.054;8.518;2023-02-02T19:34:15;101360.72;;;6.70;100.00
65716;BME280;63484;52.054;8.518;2023-02-02T19:39:20;101368.28;;;6.78;100.00
65716;BME280;63484;52.054;8.518;2023-02-02T19:44:29;101366.53;;;6.78;100.00
65716;BME280;63484;52.054;8.518;2023-02-02T19:49:32;101369.47;;;6.94;100.00
65716;BME280;63484;52.054;8.518;2023-02-02T19:54:35;101365.81;;;6.99;100.00
65716;BME280;63484;52.054;8.518;2023-02-02T19:59:40;101362.78;;;7.10;100.00
65716;BME280;63484;52.054;8.518;2023-02-02T20:04:43;101354.81;;;7.15;100.00
65716;BME280;63484;52.054;8.518;2023-02-02T20:09:44;101362.00;;;7.33;100.00
65716;BME280;63484;52.054;8.518;2023-02-02T20:14:47;101353.00;;;7.40;100.00
65716;BME280;63484;52.054;8.518;2023-02-02T20:19:49;101359.78;;;7.45;100.00
65716;BME280;63484;52.054;8.518;2023-02-02T20:24:51;101358.69;;;7.51;100.00
65716;BME280;63484;52.054;8.518;2023-02-02T20:29:58;101357.56;;;7.58;100.00
65716;BME280;63484;52.054;8.518;2023-02-02T20:35:01;101353.81;;;7.65;100.00
65716;BME280;63484;52.054;8.518;2023-02-02T20:40:21;101350.22;;;7.67;100.00
65716;BME280;63484;52.054;8.518;2023-02-02T20:45:25;101352.03;;;7.65;100.00
65716;BME280;63484;52.054;8.518;2023-02-02T20:50:26;101352.38;;;7.79;100.00
65716;BME280;63484;52.054;8.518;2023-02-02T20:55:29;101354.13;;;7.79;100.00
65716;BME280;63484;52.054;8.518;2023-02-02T21:00:33;101350.38;;;7.86;100.00
65716;BME280;63484;52.054;8.518;2023-02-02T21:05:36;101356.63;;;7.82;100.00
65716;BME280;63484;52.054;8.518;2023-02-02T21:10:37;101354.88;;;7.82;100.00
65716;BME280;63484;52.054;8.518;2023-02-02T21:15:40;101354.88;;;7.82;100.00
65716;BME280;63484;52.054;8.518;2023-02-02T21:20:42;101348.78;;;7.82;100.00
65716;BME280;63484;52.054;8.518;2023-02-02T21:25:43;101354.50;;;7.91;100.00
65716;BME280;63484;52.054;8.518;2023-02-02T21:30:46;101362.25;;;7.94;100.00
65716;BME280;63484;52.054;8.518;2023-02-02T21:35:47;101358.00;;;7.92;100.00
65716;BME280;63484;52.054;8.518;2023-02-02T21:40:49;101352.44;;;7.99;100.00
65716;BME280;63484;52.054;8.518;2023-02-02T21:45:53;101357.00;;;7.94;100.00
65716;BME280;63484;52.054;8.518;2023-02-02T21:50:56;101357.94;;;7.93;100.00
65716;BME280;63484;52.054;8.518;2023-02-02T21:55:58;101348.00;;;8.01;100.00
65716;BME280;63484;52.054;8.518;2023-02-02T22:01:13;101353.13;;;8.04;100.00
65716;BME280;63484;52.054;8.518;2023-02-02T22:06:23;101353.44;;;7.97;100.00
65716;BME280;63484;52.054;8.518;2023-02-02T22:11:26;101351.25;;;8.08;100.00
65716;BME280;63484;52.054;8.518;2023-02-02T22:16:37;101343.31;;;8.09;100.00
65716;BME280;63484;52.054;8.518;2023-02-02T22:21:40;101343.44;;;8.06;100.00
65716;BME280;63484;52.054;8.518;2023-02-02T22:26:41;101342.19;;;8.16;100.00
65716;BME280;63484;52.054;8.518;2023-02-02T22:31:44;101340.03;;;8.04;100.00
65716;BME280;63484;52.054;8.518;2023-02-02T22:36:45;101335.59;;;8.06;100.00
65716;BME280;63484;52.054;8.518;2023-02-02T22:41:47;101320.06;;;8.23;100.00
65716;BME280;63484;52.054;8.518;2023-02-02T22:46:50;101284.97;;;8.06;100.00
65716;BME280;63484;52.054;8.518;2023-02-02T22:51:51;101291.34;;;8.00;100.00
65716;BME280;63484;52.054;8.518;2023-02-02T22:56:52;101304.59;;;8.17;100.00
65716;BME280;63484;52.054;8.518;2023-02-02T23:01:55;101309.22;;;8.11;100.00
65716;BME280;63484;52.054;8.518;2023-02-02T23:06:57;101330.91;;;8.14;100.00
65716;BME280;63484;52.054;8.518;2023-02-02T23:11:58;101341.03;;;8.23;100.00
65716;BME280;63484;52.054;8.518;2023-02-02T23:17:01;101324.75;;;8.15;100.00
65716;BME280;63484;52.054;8.518;2023-02-02T23:22:03;101306.03;;;8.26;100.00
65716;BME280;63484;52.054;8.518;2023-02-02T23:27:04;101301.50;;;8.29;100.00
65716;BME280;63484;52.054;8.518;2023-02-02T23:32:07;101285.22;;;8.21;100.00
65716;BME280;63484;52.054;8.518;2023-02-02T23:37:08;101288.53;;;8.26;100.00
65716;BME280;63484;52.054;8.518;2023-02-02T23:42:10;101262.16;;;8.31;100.00
65716;BME280;63484;52.054;8.518;2023-02-02T23:47:13;101251.53;;;8.34;100.00
65716;BME280;63484;52.054;8.518;2023-02-02T23:52:14;101271.50;;;8.36;100.00
65716;BME280;63484;52.054;8.518;2023-02-02T23:57:16;101271.16;;;8.24;100.00
